Time;durP1;ratioP1;P1;durP2;ratioP2;P2;SDS_P1;SDS_P2;PMS_P1;PMS_P2;Temp;Humidity;BMP_temperature;BMP_pressure;BME280_temperature;BME280_humidity;BME280_pressure;Samples;Min_cycle;Max_cycle;Signal;HPM_P1;HPM_P2
2020/12/24 00:00:48;;;;;;;74.27;41.00;;;3.70;94.40;;;;;;5022077;28;20206;-82
2020/12/24 00:03:15;;;;;;;70.90;41.30;;;3.80;94.40;;;;;;5025610;28;20202;-82
2020/12/24 00:05:43;;;;;;;69.27;39.73;;;3.80;94.50;;;;;;5026308;28;20298;-81
2020/12/24 00:08:10;;;;;;;73.07;40.00;;;3.80;94.50;;;;;;5025946;28;20205;-82
2020/12/24 00:10:38;;;;;;;73.40;41.40;;;3.90;94.50;;;;;;5021059;28;20206;-82
2020/12/24 00:13:06;;;;;;;71.50;40.90;;;3.90;94.50;;;;;;5032352;28;20201;-83
2020/12/24 00:15:34;;;;;;;79.57;42.83;;;3.90;94.50;;;;;;5024145;28;20674;-81
2020/12/24 00:18:18;;;;;;;76.13;41.70;;;3.90;94.50;;;;;;5015552;28;20202;-83
2020/12/24 00:20:46;;;;;;;84.17;43.43;;;3.90;94.50;;;;;;5021535;28;20317;-80
2020/12/24 00:23:14;;;;;;;90.53;42.43;;;4.00;94.50;;;;;;5020848;28;20210;-83
2020/12/24 00:25:42;;;;;;;85.07;44.20;;;4.00;94.50;;;;;;5023734;28;20979;-82
2020/12/24 00:28:10;;;;;;;91.63;44.67;;;4.00;94.50;;;;;;5025533;28;20280;-82
2020/12/24 00:30:40;;;;;;;91.07;45.23;;;4.10;94.50;;;;;;5020681;28;20210;-82
2020/12/24 00:33:09;;;;;;;99.97;44.33;;;4.00;94.50;;;;;;5020271;28;20205;-81
2020/12/24 00:35:38;;;;;;;96.60;45.30;;;4.10;94.50;;;;;;5025082;28;20201;-82
2020/12/24 00:38:06;;;;;;;96.60;45.07;;;4.10;94.50;;;;;;5011371;28;20282;-82
2020/12/24 00:40:34;;;;;;;82.53;43.13;;;4.10;94.50;;;;;;5018398;28;20217;-82
2020/12/24 00:43:01;;;;;;;99.57;44.70;;;4.10;94.50;;;;;;5024112;28;20249;-82
2020/12/24 00:45:29;;;;;;;96.67;45.73;;;4.30;94.60;;;;;;5022105;28;20620;-81
2020/12/24 00:47:56;;;;;;;103.87;46.10;;;4.20;94.50;;;;;;5017261;28;20209;-83
2020/12/24 00:50:24;;;;;;;97.10;45.77;;;4.20;94.50;;;;;;5018081;28;20699;-82
2020/12/24 00:52:52;;;;;;;102.50;45.93;;;4.20;94.50;;;;;;5009237;28;20194;-80
2020/12/24 00:55:20;;;;;;;105.17;44.87;;;4.30;94.50;;;;;;5021019;28;20413;-82
2020/12/24 00:57:48;;;;;;;105.17;46.27;;;4.30;94.50;;;;;;5023184;28;21116;-81
2020/12/24 01:00:15;;;;;;;103.77;46.87;;;4.30;94.50;;;;;;5041467;28;20213;-82
2020/12/24 01:02:42;;;;;;;106.97;45.20;;;4.30;94.50;;;;;;5056506;28;20234;-82
2020/12/24 01:05:10;;;;;;;105.37;44.10;;;4.40;94.50;;;;;;5037073;28;20687;-81
2020/12/24 01:07:38;;;;;;;103.03;44.33;;;4.30;94.40;;;;;;5017594;28;20623;-80
2020/12/24 01:10:08;;;;;;;104.10;46.30;;;4.40;94.40;;;;;;5003432;28;20190;-82
2020/12/24 01:12:35;;;;;;;103.50;45.57;;;4.60;94.50;;;;;;5015705;28;20198;-82
2020/12/24 01:15:05;;;;;;;101.63;43.80;;;4.40;94.40;;;;;;5021292;28;20797;-82
2020/12/24 01:17:33;;;;;;;99.47;45.20;;;4.40;94.40;;;;;;5020826;28;20623;-83
2020/12/24 01:20:00;;;;;;;93.70;42.43;;;4.50;94.40;;;;;;5017938;28;20280;-81
2020/12/24 01:22:31;;;;;;;91.57;41.23;;;4.50;94.40;;;;;;5014255;28;20545;-81
2020/12/24 01:24:58;;;;;;;101.23;41.67;;;4.50;94.40;;;;;;5029101;28;20715;-82
2020/12/24 01:27:27;;;;;;;88.83;39.37;;;4.60;94.40;;;;;;5022624;28;20187;-79
2020/12/24 01:29:54;;;;;;;93.03;39.83;;;4.60;94.40;;;;;;5011760;28;20206;-81
2020/12/24 01:32:24;;;;;;;77.30;37.03;;;4.60;94.40;;;;;;5020852;28;20199;-80
2020/12/24 01:34:51;;;;;;;82.23;35.87;;;4.70;94.40;;;;;;5021573;28;20199;-80
2020/12/24 01:37:19;;;;;;;79.27;36.20;;;4.70;94.40;;;;;;5016966;28;20292;-81
2020/12/24 01:39:47;;;;;;;71.43;34.60;;;4.70;94.40;;;;;;5015931;28;20210;-81
2020/12/24 01:42:17;;;;;;;70.60;34.73;;;4.80;94.40;;;;;;5019571;28;20540;-82
2020/12/24 01:44:46;;;;;;;60.63;30.50;;;4.80;94.30;;;;;;5014850;28;20202;-81
2020/12/24 01:47:14;;;;;;;76.00;32.17;;;4.80;94.30;;;;;;5016741;28;20229;-80
2020/12/24 01:49:42;;;;;;;62.33;30.93;;;4.90;94.30;;;;;;5017144;28;20203;-83
2020/12/24 01:52:39;;;;;;;62.67;29.80;;;4.90;94.30;;;;;;5023443;28;20203;-81
2020/12/24 01:55:09;;;;;;;54.83;27.37;;;5.00;94.30;;;;;;5018282;28;20608;-81
2020/12/24 01:57:38;;;;;;;60.97;29.03;;;5.00;94.30;;;;;;5016114;28;20210;-81
2020/12/24 02:00:07;;;;;;;58.70;27.00;;;5.00;94.30;;;;;;5016995;28;20199;-81
2020/12/24 02:02:35;;;;;;;56.57;28.13;;;5.10;94.30;;;;;;5017502;28;20668;-82
2020/12/24 02:05:03;;;;;;;56.63;26.57;;;5.10;94.30;;;;;;5014727;28;20297;-83
2020/12/24 02:07:31;;;;;;;57.40;26.57;;;5.10;94.30;;;;;;5015698;28;20206;-82
2020/12/24 02:10:02;;;;;;;60.67;27.43;;;5.20;94.30;;;;;;5017634;28;20439;-80
2020/12/24 02:12:29;;;;;;;62.07;28.03;;;5.20;94.40;;;;;;5017802;28;20209;-82
2020/12/24 02:14:57;;;;;;;55.37;26.37;;;5.20;94.30;;;;;;5015419;28;20264;-82
2020/12/24 02:17:25;;;;;;;54.10;27.20;;;5.30;94.30;;;;;;5020660;28;20611;-81
2020/12/24 02:19:53;;;;;;;53.33;26.13;;;5.30;94.30;;;;;;5013993;28;20191;-81
2020/12/24 02:22:21;;;;;;;54.70;27.87;;;5.20;94.30;;;;;;5029505;28;20230;-81
2020/12/24 02:24:49;;;;;;;56.93;26.57;;;5.40;94.30;;;;;;5036661;28;20273;-81
2020/12/24 02:27:16;;;;;;;49.50;25.53;;;5.40;94.30;;;;;;5041549;28;20207;-82
2020/12/24 02:29:43;;;;;;;57.17;27.80;;;5.40;94.30;;;;;;5034274;28;20186;-81
2020/12/24 02:32:11;;;;;;;51.03;26.20;;;5.50;94.40;;;;;;5030375;28;20207;-81
2020/12/24 02:34:38;;;;;;;51.43;25.47;;;5.40;94.30;;;;;;5016785;28;20325;-81
2020/12/24 02:37:07;;;;;;;52.23;26.40;;;5.50;94.40;;;;;;5020106;28;20770;-81
2020/12/24 02:39:35;;;;;;;56.30;26.63;;;5.50;94.40;;;;;;5028530;28;20200;-80
2020/12/24 02:42:03;;;;;;;51.50;27.53;;;5.50;94.40;;;;;;5016105;28;20226;-81
2020/12/24 02:44:30;;;;;;;52.23;27.23;;;5.50;94.40;;;;;;5017184;28;20499;-80
2020/12/24 02:46:58;;;;;;;52.57;25.73;;;5.60;94.40;;;;;;5014027;28;20199;-81
2020/12/24 02:49:25;;;;;;;53.27;27.67;;;5.60;94.40;;;;;;5016482;28;20389;-82
2020/12/24 02:51:52;;;;;;;54.23;26.20;;;5.60;94.50;;;;;;5011851;28;20755;-79
2020/12/24 02:54:20;;;;;;;52.30;27.40;;;5.60;94.50;;;;;;5032415;28;20207;-81
2020/12/24 02:56:48;;;;;;;46.67;26.50;;;5.50;94.50;;;;;;5014036;28;20252;-81
2020/12/24 02:59:15;;;;;;;45.73;25.00;;;5.50;94.50;;;;;;5016832;28;20626;-81
2020/12/24 03:01:43;;;;;;;43.40;25.13;;;5.50;94.50;;;;;;5021826;28;20225;-82
2020/12/24 03:04:10;;;;;;;45.03;25.03;;;5.50;94.60;;;;;;5013580;28;20618;-80
2020/12/24 03:06:38;;;;;;;38.37;24.13;;;5.50;94.60;;;;;;5021170;28;20213;-82
2020/12/24 03:09:05;;;;;;;39.37;24.63;;;5.60;94.60;;;;;;5017626;28;20935;-80
2020/12/24 03:11:33;;;;;;;40.57;23.23;;;5.50;94.60;;;;;;5017939;28;20237;-82
2020/12/24 03:14:01;;;;;;;37.33;22.47;;;5.50;94.60;;;;;;5018947;28;20707;-82
2020/12/24 03:16:29;;;;;;;37.37;23.30;;;5.40;94.60;;;;;;5030207;28;20203;-84
2020/12/24 03:18:56;;;;;;;36.23;21.03;;;5.40;94.60;;;;;;5042066;28;20474;-82
2020/12/24 03:21:24;;;;;;;32.63;20.10;;;5.30;94.60;;;;;;5034607;28;20179;-80
2020/12/24 03:23:51;;;;;;;30.63;20.33;;;5.40;94.60;;;;;;5039912;28;20202;-82
2020/12/24 03:26:19;;;;;;;29.20;20.27;;;5.30;94.60;;;;;;5041119;28;20269;-82
2020/12/24 03:28:46;;;;;;;28.57;20.77;;;5.30;94.60;;;;;;5040607;28;20232;-81
2020/12/24 03:31:21;;;;;;;27.53;19.07;;;5.30;94.60;;;;;;5039056;28;20281;-81
2020/12/24 03:33:49;;;;;;;27.07;18.50;;;5.30;94.60;;;;;;5042182;28;20453;-83
2020/12/24 03:36:17;;;;;;;26.17;19.03;;;5.30;94.60;;;;;;5044618;28;20185;-83
2020/12/24 03:38:44;;;;;;;25.50;17.90;;;5.30;94.60;;;;;;5052336;28;20203;-83
2020/12/24 03:41:12;;;;;;;24.73;17.93;;;5.30;94.60;;;;;;5019090;28;20299;-80
2020/12/24 03:43:39;;;;;;;24.20;17.13;;;5.30;94.60;;;;;;5019924;28;20515;-80
2020/12/24 03:46:07;;;;;;;24.13;17.67;;;5.30;94.70;;;;;;5004792;28;20567;-81
2020/12/24 03:48:36;;;;;;;23.13;16.67;;;5.30;94.60;;;;;;5040139;28;20194;-81
2020/12/24 03:51:03;;;;;;;22.73;16.87;;;5.30;94.60;;;;;;5028788;28;20202;-81
2020/12/24 03:53:31;;;;;;;21.03;16.00;;;5.30;94.60;;;;;;5040399;28;20179;-80
2020/12/24 03:55:58;;;;;;;20.97;16.13;;;5.20;94.60;;;;;;5041324;28;20388;-81
2020/12/24 03:58:26;;;;;;;21.27;16.80;;;5.30;94.60;;;;;;5039144;28;20278;-82
2020/12/24 04:00:54;;;;;;;19.80;15.53;;;5.20;94.60;;;;;;5029626;28;20211;-80
2020/12/24 04:03:21;;;;;;;18.87;16.20;;;5.30;94.60;;;;;;5032197;28;20217;-83
2020/12/24 04:05:49;;;;;;;21.87;16.03;;;5.30;94.60;;;;;;5043892;28;20183;-83
2020/12/24 04:08:17;;;;;;;21.73;16.17;;;5.20;94.60;;;;;;5041210;28;20179;-82
2020/12/24 04:10:44;;;;;;;19.90;15.63;;;5.20;94.60;;;;;;5041895;28;20209;-82
2020/12/24 04:13:11;;;;;;;23.07;16.27;;;5.30;94.60;;;;;;5034276;28;20215;-83
2020/12/24 04:15:39;;;;;;;19.17;15.83;;;5.30;94.60;;;;;;5042600;28;20213;-82
2020/12/24 04:18:06;;;;;;;19.93;15.30;;;5.30;94.60;;;;;;5050552;28;20202;-80
2020/12/24 04:20:50;;;;;;;21.43;16.07;;;5.30;94.60;;;;;;5043176;28;20199;-83
2020/12/24 04:23:17;;;;;;;21.60;15.83;;;5.30;94.60;;;;;;5033778;28;20303;-83
2020/12/24 04:25:44;;;;;;;21.87;16.17;;;5.30;94.60;;;;;;5045701;28;20206;-82
2020/12/24 04:28:12;;;;;;;19.87;14.93;;;5.30;94.60;;;;;;5039089;28;20199;-83
2020/12/24 04:30:41;;;;;;;20.67;14.27;;;5.30;94.60;;;;;;5041882;28;20207;-82
2020/12/24 04:33:09;;;;;;;21.73;15.70;;;5.30;94.60;;;;;;5030540;28;20209;-81
2020/12/24 04:35:36;;;;;;;20.07;14.57;;;5.30;94.60;;;;;;5023372;28;20286;-82
2020/12/24 04:38:05;;;;;;;18.87;14.80;;;5.30;94.60;;;;;;5016766;28;20222;-81
2020/12/24 04:40:34;;;;;;;17.83;14.60;;;5.20;94.60;;;;;;5017950;28;20194;-83
2020/12/24 04:43:03;;;;;;;22.33;15.70;;;5.30;94.60;;;;;;5017266;28;20269;-83
2020/12/24 04:45:32;;;;;;;22.77;15.67;;;5.20;94.60;;;;;;5022132;28;20498;-82
2020/12/24 04:48:00;;;;;;;22.23;16.10;;;5.30;94.60;;;;;;5017866;28;20210;-83
2020/12/24 04:50:30;;;;;;;22.43;15.47;;;5.30;94.60;;;;;;5023855;28;20212;-83
2020/12/24 04:52:58;;;;;;;21.40;15.10;;;5.30;94.60;;;;;;5027015;28;20202;-83
2020/12/24 04:55:26;;;;;;;19.53;15.27;;;5.20;94.60;;;;;;5031399;28;20483;-80
2020/12/24 04:57:59;;;;;;;21.17;15.80;;;5.30;94.60;;;;;;5025403;28;20370;-83
2020/12/24 05:00:27;;;;;;;22.40;16.50;;;5.30;94.60;;;;;;5021293;28;20203;-84
2020/12/24 05:03:03;;;;;;;22.90;16.07;;;5.30;94.50;;;;;;5020224;28;20231;-82
2020/12/24 05:05:31;;;;;;;21.23;15.97;;;5.40;94.60;;;;;;5022849;28;20587;-82
2020/12/24 05:08:01;;;;;;;23.53;17.03;;;5.40;94.50;;;;;;5017827;28;20268;-84
2020/12/24 05:10:30;;;;;;;22.53;16.37;;;5.40;94.50;;;;;;5037254;28;20208;-83
2020/12/24 05:12:57;;;;;;;21.57;15.63;;;5.50;94.50;;;;;;5037621;28;20209;-83
2020/12/24 05:15:29;;;;;;;21.63;16.27;;;5.50;94.50;;;;;;5032949;28;20203;-83
2020/12/24 05:18:14;;;;;;;22.93;16.43;;;5.50;94.50;;;;;;5036592;28;20194;-84
2020/12/24 05:20:42;;;;;;;25.53;17.37;;;5.50;94.50;;;;;;5045359;28;20187;-82
2020/12/24 05:23:16;;;;;;;27.23;17.23;;;5.50;94.50;;;;;;5038803;28;20214;-83
2020/12/24 05:25:46;;;;;;;24.97;16.73;;;5.50;94.50;;;;;;5027933;28;20271;-82
2020/12/24 05:28:21;;;;;;;24.67;17.07;;;5.50;94.50;;;;;;5016814;28;20210;-83
2020/12/24 05:30:49;;;;;;;25.63;17.27;;;5.60;94.50;;;;;;5015919;28;20195;-82
2020/12/24 05:33:29;;;;;;;28.80;18.30;;;5.60;94.50;;;;;;5016933;28;20582;-84
2020/12/24 05:36:15;;;;;;;23.97;16.57;;;5.60;94.50;;;;;;5015519;28;20218;-83
2020/12/24 05:38:43;;;;;;;24.87;17.57;;;5.50;94.50;;;;;;5017998;28;20323;-82
2020/12/24 05:41:27;;;;;;;28.90;17.90;;;5.70;94.50;;;;;;5013320;28;20202;-83
2020/12/24 05:43:56;;;;;;;26.20;17.37;;;5.80;94.50;;;;;;5014000;28;20262;-84
2020/12/24 05:46:24;;;;;;;26.70;18.30;;;5.80;94.50;;;;;;5014717;28;20206;-82
2020/12/24 05:48:52;;;;;;;27.67;17.90;;;5.80;94.50;;;;;;5016674;28;20202;-82
2020/12/24 05:51:20;;;;;;;25.23;18.53;;;5.80;94.50;;;;;;5023847;28;20207;-81
2020/12/24 05:53:48;;;;;;;30.13;18.53;;;5.80;94.50;;;;;;5022225;28;20324;-80
2020/12/24 05:56:23;;;;;;;32.83;20.33;;;5.90;94.50;;;;;;5014350;28;20204;-82
2020/12/24 05:58:52;;;;;;;30.87;20.30;;;6.00;94.50;;;;;;5019465;28;20611;-82
2020/12/24 06:01:20;;;;;;;33.03;20.87;;;6.10;94.40;;;;;;5022054;28;20206;-84
2020/12/24 06:04:01;;;;;;;34.90;22.40;;;6.10;94.40;;;;;;5018640;28;20220;-84
2020/12/24 06:07:00;;;;;;;33.47;21.63;;;6.20;94.40;;;;;;5019700;28;20407;-82
2020/12/24 06:09:36;;;;;;;36.07;21.97;;;6.20;94.40;;;;;;5006925;28;20259;-83
2020/12/24 06:12:19;;;;;;;37.90;23.23;;;6.20;94.40;;;;;;5015365;28;20585;-81
2020/12/24 06:14:50;;;;;;;37.40;23.23;;;6.30;94.40;;;;;;5017866;28;20190;-81
2020/12/24 06:17:20;;;;;;;37.80;23.70;;;6.30;94.40;;;;;;5018150;28;20481;-81
2020/12/24 06:19:48;;;;;;;41.17;26.03;;;6.40;94.40;;;;;;5027454;28;20208;-82
2020/12/24 06:22:16;;;;;;;42.10;24.97;;;6.50;94.40;;;;;;5016394;28;20223;-82
2020/12/24 06:24:46;;;;;;;41.10;25.83;;;6.70;94.40;;;;;;5032267;28;20196;-82
2020/12/24 06:27:25;;;;;;;40.23;26.00;;;6.70;94.40;;;;;;5020211;28;20622;-82
2020/12/24 06:30:02;;;;;;;42.70;26.63;;;6.80;94.50;;;;;;5019816;28;20243;-83
2020/12/24 06:32:33;;;;;;;43.33;27.43;;;6.80;94.50;;;;;;5018887;28;20561;-83
2020/12/24 06:35:01;;;;;;;39.03;24.30;;;6.80;94.50;;;;;;5021051;28;20205;-84
2020/12/24 06:37:39;;;;;;;46.43;28.00;;;6.90;94.50;;;;;;5019478;28;21054;-81
2020/12/24 06:40:07;;;;;;;44.13;28.27;;;6.90;94.50;;;;;;5016135;28;20762;-83
2020/12/24 06:42:43;;;;;;;43.17;27.27;;;7.00;94.50;;;;;;5018232;28;20924;-83
2020/12/24 06:45:30;;;;;;;43.27;26.97;;;7.10;94.50;;;;;;5027084;28;20205;-82
2020/12/24 06:48:21;;;;;;;43.30;26.90;;;7.10;94.50;;;;;;5037520;28;20200;-80
2020/12/24 06:50:50;;;;;;;43.90;26.90;;;7.20;94.50;;;;;;5035822;28;20225;-80
2020/12/24 06:53:36;;;;;;;44.27;28.63;;;7.30;94.50;;;;;;5016341;28;20210;-80
2020/12/24 06:56:31;;;;;;;46.33;28.13;;;7.40;94.60;;;;;;5022312;28;20536;-82
2020/12/24 06:59:00;;;;;;;42.50;27.37;;;7.50;94.60;;;;;;4978668;28;20435;-81
2020/12/24 07:01:30;;;;;;;42.47;27.33;;;7.40;94.60;;;;;;5015897;28;20263;-82
2020/12/24 07:03:59;;;;;;;40.17;27.13;;;7.50;94.60;;;;;;5016737;28;20307;-82
2020/12/24 07:06:50;;;;;;;43.27;28.30;;;7.50;94.70;;;;;;5022574;28;20206;-82
2020/12/24 07:09:43;;;;;;;42.20;28.17;;;7.50;94.70;;;;;;5012773;28;20213;-81
2020/12/24 07:12:11;;;;;;;44.37;27.07;;;7.50;94.70;;;;;;4995655;28;20348;-83
2020/12/24 07:14:40;;;;;;;48.27;29.03;;;7.50;94.70;;;;;;5017560;28;20276;-80
2020/12/24 07:17:11;;;;;;;40.80;26.87;;;7.50;94.70;;;;;;5021443;28;20203;-82
2020/12/24 07:19:41;;;;;;;42.03;27.90;;;7.60;94.70;;;;;;5017762;28;20268;-82
2020/12/24 07:22:13;;;;;;;41.30;27.63;;;7.50;94.70;;;;;;4998388;28;20202;-82
2020/12/24 07:24:40;;;;;;;44.83;27.43;;;7.70;94.80;;;;;;5016521;28;20209;-82
2020/12/24 07:27:08;;;;;;;41.27;27.93;;;7.80;94.80;;;;;;5016568;28;20202;-82
2020/12/24 07:29:36;;;;;;;41.50;26.00;;;7.90;94.80;;;;;;5014635;28;20202;-83
2020/12/24 07:32:05;;;;;;;40.33;26.30;;;7.80;94.80;;;;;;5012991;28;20205;-80
2020/12/24 07:34:35;;;;;;;40.83;26.43;;;7.90;94.90;;;;;;5016560;28;20881;-83
2020/12/24 07:37:04;;;;;;;38.80;26.10;;;7.90;94.90;;;;;;5015055;28;20210;-82
2020/12/24 07:39:32;;;;;;;37.23;25.23;;;7.90;94.90;;;;;;5014275;28;20327;-80
2020/12/24 07:41:59;;;;;;;43.30;26.63;;;7.90;94.90;;;;;;5015046;28;20199;-83
2020/12/24 07:44:27;;;;;;;39.20;25.93;;;8.00;94.90;;;;;;5021278;28;20614;-81
2020/12/24 07:47:02;;;;;;;39.47;24.97;;;8.00;94.90;;;;;;5023072;28;20257;-83
2020/12/24 07:49:30;;;;;;;35.87;25.43;;;8.10;94.90;;;;;;5015881;28;20365;-82
2020/12/24 07:51:59;;;;;;;33.47;24.47;;;8.20;95.00;;;;;;5017670;28;20199;-81
2020/12/24 07:54:29;;;;;;;36.43;24.97;;;8.20;95.00;;;;;;5016804;28;20209;-82
2020/12/24 07:56:59;;;;;;;37.10;24.23;;;8.30;95.00;;;;;;5021459;28;20277;-82
2020/12/24 07:59:26;;;;;;;34.50;23.40;;;8.20;95.10;;;;;;5019269;28;20203;-82
2020/12/24 08:02:04;;;;;;;33.70;24.03;;;8.20;95.10;;;;;;5015524;28;20225;-82
2020/12/24 08:04:31;;;;;;;34.40;24.43;;;8.20;95.10;;;;;;5016386;28;20351;-83
2020/12/24 08:07:00;;;;;;;32.97;23.23;;;8.30;95.10;;;;;;5020820;28;20235;-81
2020/12/24 08:09:27;;;;;;;32.80;23.07;;;8.30;95.20;;;;;;5016555;28;20194;-84
2020/12/24 08:11:56;;;;;;;36.53;24.03;;;8.30;95.20;;;;;;5033193;28;20191;-82
2020/12/24 08:14:24;;;;;;;32.00;22.13;;;8.30;95.20;;;;;;5042791;28;20415;-81
2020/12/24 08:16:53;;;;;;;31.53;22.90;;;8.30;95.20;;;;;;5037086;28;20234;-82
2020/12/24 08:19:29;;;;;;;30.30;21.43;;;8.30;95.30;;;;;;5030681;28;20202;-82
2020/12/24 08:22:03;;;;;;;30.63;21.97;;;8.30;95.30;;;;;;5027622;28;20205;-83
2020/12/24 08:24:33;;;;;;;31.87;21.63;;;8.40;95.30;;;;;;5020112;28;20206;-80
2020/12/24 08:27:02;;;;;;;34.80;22.77;;;8.40;95.30;;;;;;5011205;28;20443;-83
2020/12/24 08:29:30;;;;;;;31.80;22.50;;;8.50;95.30;;;;;;5020330;28;20217;-82
2020/12/24 08:31:59;;;;;;;32.80;22.40;;;8.50;95.30;;;;;;5020270;28;20206;-83
2020/12/24 08:34:26;;;;;;;32.83;21.67;;;8.60;95.30;;;;;;5014465;28;20203;-82
2020/12/24 08:36:53;;;;;;;32.53;21.57;;;8.60;95.30;;;;;;5038972;28;20202;-82
2020/12/24 08:39:23;;;;;;;28.57;21.23;;;8.70;95.30;;;;;;5034382;28;20206;-84
2020/12/24 08:41:56;;;;;;;28.77;21.10;;;8.80;95.30;;;;;;5040680;28;20198;-84
2020/12/24 08:44:24;;;;;;;29.23;20.53;;;8.90;95.30;;;;;;5039865;28;20234;-83
2020/12/24 08:47:03;;;;;;;28.33;19.93;;;8.90;95.30;;;;;;5039966;28;20179;-81
2020/12/24 08:49:31;;;;;;;26.67;20.03;;;9.00;95.40;;;;;;5039353;28;20217;-81
2020/12/24 08:52:09;;;;;;;28.03;19.87;;;9.10;95.40;;;;;;5036781;28;20226;-82
2020/12/24 08:54:38;;;;;;;27.97;19.13;;;9.10;95.50;;;;;;5028435;28;20225;-80
2020/12/24 08:57:11;;;;;;;26.10;18.00;;;9.10;95.50;;;;;;5026116;28;20513;-82
2020/12/24 08:59:39;;;;;;;24.80;18.67;;;9.10;95.50;;;;;;5022965;28;20199;-81
2020/12/24 09:02:07;;;;;;;25.73;18.17;;;9.20;95.60;;;;;;5021930;28;20187;-85
2020/12/24 09:04:34;;;;;;;23.50;18.50;;;9.40;95.60;;;;;;5020804;28;20775;-84
2020/12/24 09:07:01;;;;;;;24.60;17.37;;;9.30;95.60;;;;;;5022161;28;20207;-82
2020/12/24 09:09:29;;;;;;;22.60;16.23;;;9.40;95.70;;;;;;5020012;28;20196;-83
2020/12/24 09:11:57;;;;;;;21.80;15.57;;;9.40;95.70;;;;;;5017319;28;20203;-82
2020/12/24 09:14:26;;;;;;;19.43;15.17;;;9.50;95.70;;;;;;5020620;28;20417;-81
2020/12/24 09:16:55;;;;;;;21.40;15.70;;;9.60;95.80;;;;;;5020931;28;20786;-82
2020/12/24 09:19:22;;;;;;;17.27;13.87;;;9.70;95.80;;;;;;5025070;28;20199;-81
2020/12/24 09:21:55;;;;;;;17.17;13.33;;;9.70;95.90;;;;;;5018635;28;20209;-84
2020/12/24 09:24:23;;;;;;;17.33;13.20;;;9.80;96.00;;;;;;5034008;28;20233;-82
2020/12/24 09:26:53;;;;;;;15.67;13.03;;;9.90;96.00;;;;;;5022856;28;20787;-81
2020/12/24 09:29:22;;;;;;;15.50;12.43;;;10.00;96.10;;;;;;5028717;28;20616;-79
2020/12/24 09:31:58;;;;;;;14.73;11.80;;;10.00;96.20;;;;;;5034298;28;20620;-81
2020/12/24 09:34:26;;;;;;;14.13;11.57;;;10.00;96.40;;;;;;5045877;28;20189;-82
2020/12/24 09:36:53;;;;;;;13.57;11.03;;;10.10;96.50;;;;;;5046629;28;20186;-82
2020/12/24 09:39:21;;;;;;;14.63;11.47;;;10.10;96.50;;;;;;5045012;28;20189;-82
2020/12/24 09:41:49;;;;;;;12.40;10.30;;;10.20;96.60;;;;;;5041990;28;20186;-81
2020/12/24 09:44:18;;;;;;;12.53;10.80;;;10.20;96.60;;;;;;5040243;28;20224;-80
2020/12/24 09:46:48;;;;;;;12.57;9.83;;;10.30;96.60;;;;;;5031783;28;20224;-83
2020/12/24 09:49:16;;;;;;;12.23;10.00;;;10.30;96.40;;;;;;5041552;28;20446;-84
2020/12/24 09:51:44;;;;;;;11.83;9.80;;;10.40;96.30;;;;;;5044879;28;20187;-81
2020/12/24 09:54:30;;;;;;;12.27;9.37;;;10.40;96.20;;;;;;5029325;28;20258;-83
2020/12/24 09:56:58;;;;;;;11.73;9.20;;;10.40;96.10;;;;;;5021886;28;20506;-82
2020/12/24 09:59:26;;;;;;;10.20;9.10;;;10.50;96.00;;;;;;5020103;28;20203;-82
2020/12/24 10:01:55;;;;;;;9.17;7.87;;;10.50;96.00;;;;;;5026231;28;20205;-83
2020/12/24 10:04:22;;;;;;;12.40;8.63;;;10.50;95.80;;;;;;5020337;28;20222;-82
2020/12/24 10:06:50;;;;;;;10.47;8.73;;;10.60;95.60;;;;;;5013828;28;20216;-83
2020/12/24 10:09:17;;;;;;;9.67;8.17;;;10.60;95.40;;;;;;5018759;28;20206;-80
2020/12/24 10:11:46;;;;;;;9.47;8.03;;;10.70;95.30;;;;;;5025571;28;20217;-83
2020/12/24 10:14:14;;;;;;;10.03;7.90;;;10.70;95.20;;;;;;5022204;28;20277;-81
2020/12/24 10:16:42;;;;;;;8.77;7.87;;;10.60;95.20;;;;;;5005676;28;20455;-82
2020/12/24 10:19:10;;;;;;;9.70;8.07;;;10.60;95.20;;;;;;5027328;28;20214;-80
2020/12/24 10:21:39;;;;;;;8.83;7.30;;;10.60;95.30;;;;;;5015145;28;20610;-82
2020/12/24 10:24:16;;;;;;;10.47;8.00;;;10.60;95.30;;;;;;5005553;28;20218;-82
2020/12/24 10:26:44;;;;;;;8.67;7.73;;;10.50;95.30;;;;;;5024872;28;20297;-82
2020/12/24 10:29:11;;;;;;;10.83;8.23;;;10.50;95.30;;;;;;5029466;28;20209;-82
2020/12/24 10:31:43;;;;;;;12.47;7.80;;;10.50;95.30;;;;;;5018693;28;20264;-81
2020/12/24 10:34:11;;;;;;;11.00;7.40;;;10.40;95.20;;;;;;5013232;28;20193;-81
2020/12/24 10:36:39;;;;;;;9.37;7.13;;;10.40;95.30;;;;;;5028674;28;20266;-81
2020/12/24 10:39:09;;;;;;;9.63;7.57;;;10.50;95.20;;;;;;5017911;28;20272;-82
2020/12/24 10:41:39;;;;;;;8.33;7.23;;;10.40;95.20;;;;;;5017533;28;20194;-82
2020/12/24 10:44:07;;;;;;;9.17;6.67;;;10.40;95.20;;;;;;5013643;28;20232;-81
2020/12/24 10:46:36;;;;;;;9.27;6.90;;;10.40;95.10;;;;;;5026625;28;20352;-81
2020/12/24 10:49:03;;;;;;;8.83;6.67;;;10.40;95.10;;;;;;5020515;28;20203;-80
2020/12/24 10:51:33;;;;;;;7.83;6.93;;;10.40;95.10;;;;;;5017948;28;20202;-83
2020/12/24 10:54:00;;;;;;;9.50;7.17;;;10.50;95.10;;;;;;5031630;28;20212;-82
2020/12/24 10:56:28;;;;;;;7.70;6.73;;;10.40;95.00;;;;;;5020499;28;20260;-82
2020/12/24 10:58:55;;;;;;;10.73;6.67;;;10.50;94.90;;;;;;5016453;28;20488;-82
2020/12/24 11:01:23;;;;;;;9.67;6.63;;;10.50;94.80;;;;;;5019453;28;20205;-84
2020/12/24 11:03:50;;;;;;;8.60;6.70;;;10.50;94.70;;;;;;5021982;28;20240;-83
2020/12/24 11:06:19;;;;;;;7.40;5.80;;;10.50;94.70;;;;;;5038775;28;20182;-79
2020/12/24 11:08:48;;;;;;;7.80;6.37;;;10.60;94.60;;;;;;5037867;28;20217;-82
2020/12/24 11:11:16;;;;;;;8.10;5.90;;;10.50;94.50;;;;;;5038914;28;20424;-80
2020/12/24 11:13:45;;;;;;;8.00;6.37;;;10.60;94.40;;;;;;5020234;28;20199;-82
2020/12/24 11:16:21;;;;;;;8.17;6.00;;;10.60;94.40;;;;;;5020300;28;20207;-83
2020/12/24 11:18:49;;;;;;;7.90;6.30;;;10.60;94.20;;;;;;5022941;28;20246;-80
2020/12/24 11:21:16;;;;;;;6.77;6.00;;;10.60;94.10;;;;;;5018717;28;20731;-82
2020/12/24 11:23:46;;;;;;;7.33;5.70;;;10.60;94.10;;;;;;5018676;28;20252;-81
2020/12/24 11:26:21;;;;;;;6.37;5.77;;;10.60;94.10;;;;;;5017588;28;20202;-83
2020/12/24 11:28:49;;;;;;;7.27;6.10;;;10.60;94.10;;;;;;5019170;28;20204;-79
2020/12/24 11:31:23;;;;;;;7.97;5.97;;;10.60;94.30;;;;;;5022794;28;20210;-81
2020/12/24 11:33:51;;;;;;;7.57;5.97;;;10.50;94.40;;;;;;5022062;28;20716;-81
2020/12/24 11:36:19;;;;;;;8.70;6.37;;;10.50;94.50;;;;;;5024704;28;20852;-81
2020/12/24 11:38:48;;;;;;;6.70;5.93;;;10.40;94.60;;;;;;5019175;28;20222;-81
2020/12/24 11:41:17;;;;;;;9.00;7.10;;;10.30;94.80;;;;;;5025653;28;20206;-81
2020/12/24 11:43:46;;;;;;;7.97;6.67;;;10.30;94.90;;;;;;5022895;28;20227;-83
2020/12/24 11:46:15;;;;;;;8.43;6.33;;;10.30;95.10;;;;;;5024619;28;20209;-82
2020/12/24 11:48:42;;;;;;;7.40;5.93;;;10.20;95.20;;;;;;5022218;28;20737;-81
2020/12/24 11:51:12;;;;;;;7.10;5.57;;;10.20;95.10;;;;;;5021265;28;20214;-83
2020/12/24 11:53:41;;;;;;;8.33;6.37;;;10.30;94.90;;;;;;5023631;28;20213;-83
2020/12/24 11:56:13;;;;;;;10.27;6.50;;;10.10;94.80;;;;;;5007681;28;20619;-82
2020/12/24 11:58:41;;;;;;;7.17;6.20;;;10.20;95.00;;;;;;5017128;28;20567;-81
2020/12/24 12:01:12;;;;;;;7.93;6.60;;;10.10;95.00;;;;;;5023876;28;20191;-83
2020/12/24 12:03:43;;;;;;;7.47;6.23;;;10.10;95.00;;;;;;5022589;28;20228;-84
2020/12/24 12:06:11;;;;;;;7.40;6.17;;;10.10;95.00;;;;;;5020356;28;20210;-83
2020/12/24 12:08:38;;;;;;;8.97;6.27;;;10.20;95.00;;;;;;5020344;28;20206;-82
2020/12/24 12:11:07;;;;;;;8.83;6.43;;;10.10;94.90;;;;;;5019958;28;20915;-84
2020/12/24 12:13:37;;;;;;;9.60;6.60;;;10.10;94.90;;;;;;5019691;28;20514;-84
2020/12/24 12:16:07;;;;;;;9.50;6.87;;;10.20;95.00;;;;;;5015984;28;20199;-82
2020/12/24 12:18:36;;;;;;;10.10;6.30;;;10.10;95.10;;;;;;5029408;28;20205;-81
2020/12/24 12:21:04;;;;;;;7.17;6.47;;;10.10;95.10;;;;;;5018339;28;20782;-82
2020/12/24 12:23:33;;;;;;;7.53;6.63;;;10.10;95.10;;;;;;5027542;28;20558;-81
2020/12/24 12:26:10;;;;;;;8.17;5.93;;;10.10;95.10;;;;;;5004174;28;20236;-82
2020/12/24 12:28:37;;;;;;;10.00;7.10;;;10.10;95.00;;;;;;5018335;28;20847;-80
2020/12/24 12:31:05;;;;;;;9.30;7.07;;;10.10;95.00;;;;;;5029030;28;20200;-84
2020/12/24 12:33:33;;;;;;;8.07;6.60;;;10.20;94.80;;;;;;5045449;28;20207;-82
2020/12/24 12:36:03;;;;;;;5.90;4.40;;;10.20;94.60;;;;;;5041639;28;20202;-81
2020/12/24 12:38:30;;;;;;;6.30;4.77;;;10.30;92.60;;;;;;5030674;28;20999;-82
2020/12/24 12:40:58;;;;;;;6.00;4.53;;;10.20;92.80;;;;;;5026044;28;20198;-83
2020/12/24 12:43:25;;;;;;;6.20;4.10;;;10.10;93.10;;;;;;5030543;28;20285;-81
2020/12/24 12:45:53;;;;;;;9.77;3.90;;;9.90;93.10;;;;;;5029623;28;20203;-83
2020/12/24 12:48:20;;;;;;;5.57;3.93;;;9.80;93.20;;;;;;5030747;28;20198;-82
2020/12/24 12:50:48;;;;;;;7.10;3.53;;;9.60;93.60;;;;;;5029021;28;20620;-84